Terminal Aerodrome Forecast
Issued by NWS

Home | Current Version | Previous Version | Text Only | Print | Product List | Glossary On
Versions: 1 2 3 4 5 6 7 8 9 10 11 12 13 14 15 16 17 18 19 20 21 22
000
FTUS45 KVEF 021120
TAFVGT
TAF
KVGT 021120Z 0212/0312 33008KT P6SM FEW160 BKN220
     FM021700 09008KT P6SM SCT120 BKN220
     FM022200 23009KT P6SM SCT120
     FM030300 32007KT P6SM FEW120=

USA.gov is the U.S. government's official web portal to all federal, state and local government web resources and services.